createdAt,value
2023-03-26T00:14:40.878Z,3.3
2023-03-26T00:44:41.208Z,3.2
2023-03-26T01:14:41.832Z,4.2
2023-03-26T01:44:44.823Z,4.7
2023-03-26T02:14:48.764Z,5
2023-03-26T02:44:42.654Z,3.2
2023-03-26T03:14:51.446Z,4.1
2023-03-26T03:44:46.199Z,5.2
2023-03-26T04:14:45.158Z,5.4
2023-03-26T04:44:43.777Z,3.9
2023-03-26T05:14:48.765Z,5.3
2023-03-26T05:44:54.070Z,4.5
2023-03-26T06:14:47.186Z,4.3
2023-03-26T06:44:46.453Z,5.6
2023-03-26T07:14:52.893Z,6
2023-03-26T07:44:56.266Z,9.8
2023-03-26T08:14:55.213Z,9.9
2023-03-26T08:45:13.920Z,10.7
2023-03-26T09:15:01.141Z,13.3
2023-03-26T09:45:05.404Z,9.6
2023-03-26T10:14:56.702Z,11
2023-03-26T10:44:59.425Z,7.6
2023-03-26T11:14:57.517Z,12
2023-03-26T11:45:02.710Z,7.1
2023-03-26T12:14:59.218Z,8.8
2023-03-26T12:45:00.962Z,8.4
2023-03-26T13:15:10.342Z,6.8
2023-03-26T14:15:04.296Z,6.1
2023-03-26T14:45:19.857Z,7.2
2023-03-26T15:15:20.588Z,5.2
2023-03-26T15:45:18.766Z,3.9
2023-03-26T16:15:27.416Z,4.3
2023-03-26T16:45:18.518Z,5.3
2023-03-26T17:15:17.595Z,7.7
2023-03-26T17:45:20.455Z,5.1
2023-03-26T18:15:33.574Z,6.5
2023-03-26T18:45:30.243Z,4.8
2023-03-26T19:15:20.000Z,4.3
2023-03-26T19:45:20.137Z,3.8
2023-03-26T20:15:32.235Z,5
2023-03-26T20:45:36.548Z,2.7
2023-03-26T21:15:25.729Z,2.6
2023-03-26T21:45:28.155Z,1.6
2023-03-26T22:15:36.248Z,2.9
2023-03-26T22:45:29.957Z,2.6
2023-03-26T23:45:20.890Z,3.7
